Time;durP1;ratioP1;P1;durP2;ratioP2;P2;SDS_P1;SDS_P2;PMS_P1;PMS_P2;Temp;Humidity;BMP_temperature;BMP_pressure;BME280_temperature;BME280_humidity;BME280_pressure;Samples;Min_cycle;Max_cycle;Signal;HPM_P1;HPM_P2
2023/10/22 00:00:20;;;;;;;1.85;0.70;;;;;;;11.74;100.00;99593.72;5090306;28;20044;-80
2023/10/22 00:02:46;;;;;;;2.35;0.80;;;;;;;11.72;100.00;99594.19;5092057;28;20048;-79
2023/10/22 00:05:13;;;;;;;3.78;0.70;;;;;;;11.73;100.00;99600.25;5094365;28;20076;-80
2023/10/22 00:07:39;;;;;;;4.88;1.00;;;;;;;11.72;100.00;99599.53;5094121;28;20047;-79
2023/10/22 00:10:06;;;;;;;0.98;0.82;;;;;;;11.72;100.00;99599.53;5096033;28;20049;-79
2023/10/22 00:12:32;;;;;;;0.88;0.80;;;;;;;11.75;100.00;99605.84;5095860;28;20044;-81
2023/10/22 00:14:59;;;;;;;1.20;0.90;;;;;;;11.76;100.00;99604.66;5094589;28;20110;-80
2023/10/22 00:17:26;;;;;;;2.92;0.60;;;;;;;11.77;100.00;99600.81;5094657;28;20412;-79
2023/10/22 00:19:53;;;;;;;1.65;1.00;;;;;;;11.77;100.00;99604.19;5094581;28;20051;-79
2023/10/22 00:22:20;;;;;;;1.73;1.00;;;;;;;11.76;100.00;99597.38;5093599;28;20506;-78
2023/10/22 00:24:46;;;;;;;2.83;1.02;;;;;;;11.78;100.00;99592.34;5095540;28;20044;-78
2023/10/22 00:27:13;;;;;;;1.23;1.13;;;;;;;11.79;100.00;99598.41;5095298;28;20047;-77
2023/10/22 00:29:39;;;;;;;2.90;0.80;;;;;;;11.80;100.00;99607.84;5095663;28;20559;-80
2023/10/22 00:32:06;;;;;;;2.00;1.00;;;;;;;11.81;100.00;99604.72;5094994;28;20518;-80
2023/10/22 00:34:34;;;;;;;1.10;1.00;;;;;;;11.83;100.00;99604.97;5093775;28;20143;-78
2023/10/22 00:37:01;;;;;;;2.47;1.00;;;;;;;11.83;100.00;99607.66;5094225;28;20055;-80
2023/10/22 00:39:27;;;;;;;1.70;1.08;;;;;;;11.84;100.00;99613.72;5094940;28;20075;-78
2023/10/22 00:41:54;;;;;;;2.00;0.95;;;;;;;11.85;100.00;99610.56;5094134;28;20056;-78
2023/10/22 00:44:21;;;;;;;1.92;1.00;;;;;;;11.86;100.00;99616.63;5093332;28;20123;-79
2023/10/22 00:46:47;;;;;;;2.38;0.93;;;;;;;11.86;100.00;99614.69;5094893;28;20452;-79
2023/10/22 00:49:16;;;;;;;1.83;0.77;;;;;;;11.88;100.00;99616.88;5094877;28;20075;-77
2023/10/22 00:51:44;;;;;;;3.72;1.05;;;;;;;11.90;100.00;99614.47;5095069;28;20068;-78
2023/10/22 00:54:14;;;;;;;3.60;1.17;;;;;;;11.91;100.00;99615.94;5093516;28;20076;-78
2023/10/22 00:56:42;;;;;;;2.72;0.90;;;;;;;11.93;100.00;99613.53;5094415;28;20056;-78
2023/10/22 00:59:11;;;;;;;2.80;1.10;;;;;;;11.94;100.00;99618.38;5094867;28;20040;-79
2023/10/22 01:01:38;;;;;;;3.28;1.00;;;;;;;11.97;100.00;99632.72;5093012;28;20059;-79
2023/10/22 01:04:05;;;;;;;13.45;1.33;;;;;;;11.97;100.00;99616.72;5093416;28;20521;-79
2023/10/22 01:06:31;;;;;;;3.15;0.98;;;;;;;11.97;100.00;99625.44;5093297;28;20071;-78
2023/10/22 01:08:59;;;;;;;2.17;1.42;;;;;;;11.97;100.00;99636.09;5095021;28;20044;-78
2023/10/22 01:11:25;;;;;;;1.85;1.08;;;;;;;11.97;100.00;99628.13;5092728;28;20048;-79
2023/10/22 01:13:52;;;;;;;2.20;1.27;;;;;;;12.00;100.00;99629.06;5094074;28;20126;-78
2023/10/22 01:16:19;;;;;;;1.15;0.90;;;;;;;11.99;100.00;99633.69;5091975;28;20490;-78
2023/10/22 01:18:46;;;;;;;3.28;1.27;;;;;;;12.01;100.00;99627.88;5093291;28;20049;-78
2023/10/22 01:21:12;;;;;;;3.40;1.27;;;;;;;12.02;100.00;99635.41;5094485;28;20071;-78
2023/10/22 01:23:39;;;;;;;1.40;1.08;;;;;;;12.03;100.00;99628.13;5094667;28;20040;-79
2023/10/22 01:26:07;;;;;;;1.52;1.20;;;;;;;12.05;100.00;99631.03;5093024;28;20132;-78
2023/10/22 01:28:34;;;;;;;0.88;0.88;;;;;;;12.06;100.00;99637.13;5092954;28;20048;-77
2023/10/22 01:31:04;;;;;;;1.35;0.95;;;;;;;12.06;100.00;99645.84;5093850;28;20040;-78
2023/10/22 01:33:32;;;;;;;4.53;1.08;;;;;;;12.05;100.00;99641.72;5092863;28;20056;-78
2023/10/22 01:35:59;;;;;;;1.30;0.90;;;;;;;12.03;100.00;99655.53;5094642;28;20552;-78
2023/10/22 01:38:25;;;;;;;2.33;0.88;;;;;;;12.02;100.00;99645.34;5092310;28;20135;-78
2023/10/22 01:40:52;;;;;;;2.50;0.98;;;;;;;12.01;100.00;99649.94;5094634;28;20045;-78
2023/10/22 01:43:19;;;;;;;2.08;1.00;;;;;;;12.01;100.00;99646.53;5092472;28;20627;-78
2023/10/22 01:45:45;;;;;;;1.45;1.10;;;;;;;12.01;100.00;99646.53;5093613;28;20072;-78
2023/10/22 01:48:12;;;;;;;1.67;0.95;;;;;;;12.01;100.00;99647.25;5092610;28;20520;-78
2023/10/22 01:50:39;;;;;;;1.00;0.88;;;;;;;12.00;100.00;99653.81;5094179;28;20720;-79
2023/10/22 01:53:05;;;;;;;1.73;1.00;;;;;;;12.00;100.00;99661.81;5094120;28;20045;-79
2023/10/22 01:55:33;;;;;;;2.85;0.90;;;;;;;11.99;100.00;99660.38;5093532;28;20053;-78
2023/10/22 01:57:59;;;;;;;1.80;1.02;;;;;;;11.97;100.00;99656.72;5092800;28;20426;-79
2023/10/22 02:00:27;;;;;;;3.08;0.90;;;;;;;11.94;100.00;99657.66;5091480;28;20104;-79
2023/10/22 02:02:53;;;;;;;3.08;0.90;;;;;;;11.90;100.00;99670.47;5094201;28;20098;-78
2023/10/22 02:05:20;;;;;;;1.10;1.05;;;;;;;11.87;100.00;99674.81;5093588;28;20044;-79
2023/10/22 02:07:47;;;;;;;0.63;0.60;;;;;;;11.84;100.00;99681.09;5092692;28;20047;-79
2023/10/22 02:10:13;;;;;;;1.17;0.85;;;;;;;11.81;100.00;99691.97;5092294;28;20143;-79
2023/10/22 02:12:40;;;;;;;1.30;0.98;;;;;;;11.78;100.00;99690.97;5075310;28;20136;-79
2023/10/22 02:15:07;;;;;;;1.23;1.08;;;;;;;11.74;100.00;99693.09;5093021;28;20045;-79
2023/10/22 02:17:33;;;;;;;1.00;0.88;;;;;;;11.72;100.00;99692.84;5091867;28;20059;-80
2023/10/22 02:20:01;;;;;;;4.85;1.10;;;;;;;11.68;100.00;99697.66;5092286;28;20548;-79
2023/10/22 02:22:27;;;;;;;0.93;0.90;;;;;;;11.67;100.00;99693.53;5091941;28;20498;-80
2023/10/22 02:24:54;;;;;;;0.93;0.93;;;;;;;11.65;100.00;99694.00;5092488;28;20048;-79
2023/10/22 02:27:21;;;;;;;2.88;0.90;;;;;;;11.64;100.00;99710.47;5092628;28;20131;-79
2023/10/22 02:29:47;;;;;;;1.48;0.90;;;;;;;11.64;100.00;99713.84;5093131;28;20111;-79
2023/10/22 02:32:14;;;;;;;4.38;2.25;;;;;;;11.63;100.00;99704.41;5093372;28;20040;-79
2023/10/22 02:34:40;;;;;;;0.90;0.90;;;;;;;11.62;100.00;99718.91;5093128;28;20044;-80
2023/10/22 02:37:07;;;;;;;0.80;0.80;;;;;;;11.62;100.00;99715.53;5092384;28;20049;-80
2023/10/22 02:39:34;;;;;;;1.05;0.90;;;;;;;11.62;100.00;99720.84;5093292;28;20513;-80
2023/10/22 02:42:00;;;;;;;1.30;0.68;;;;;;;11.60;100.00;99729.31;5093687;28;20048;-79
2023/10/22 02:44:27;;;;;;;1.23;0.90;;;;;;;11.59;100.00;99725.22;5091207;28;20298;-79
2023/10/22 02:46:54;;;;;;;0.90;0.90;;;;;;;11.59;100.00;99727.88;5093450;28;20079;-80
2023/10/22 02:49:21;;;;;;;0.95;0.88;;;;;;;11.57;100.00;99737.56;5091341;28;20048;-79
2023/10/22 02:51:48;;;;;;;2.15;1.00;;;;;;;11.57;100.00;99746.28;5093399;28;20044;-79
2023/10/22 02:54:15;;;;;;;0.70;0.70;;;;;;;11.57;100.00;99758.88;5092747;28;20048;-79
2023/10/22 02:56:42;;;;;;;0.68;0.68;;;;;;;11.55;100.00;99759.34;5074443;28;20060;-79
2023/10/22 02:59:09;;;;;;;2.88;0.75;;;;;;;11.55;100.00;99769.28;5091244;28;20055;-80
2023/10/22 03:01:36;;;;;;;0.40;0.40;;;;;;;11.54;100.00;99773.13;5091632;28;20049;-79
2023/10/22 03:04:03;;;;;;;0.50;0.50;;;;;;;11.52;100.00;99786.94;5091710;28;20132;-80
2023/10/22 03:06:30;;;;;;;1.95;0.50;;;;;;;11.51;100.00;99787.41;5092514;28;20086;-80
2023/10/22 03:08:57;;;;;;;0.55;0.55;;;;;;;11.50;100.00;99784.00;5091354;28;20049;-80
2023/10/22 03:11:23;;;;;;;0.40;0.40;;;;;;;11.51;100.00;99803.38;5090664;28;20055;-79
2023/10/22 03:13:50;;;;;;;0.52;0.50;;;;;;;11.50;100.00;99804.59;5093394;28;20817;-79
2023/10/22 03:16:17;;;;;;;0.40;0.40;;;;;;;11.50;100.00;99815.25;5092863;28;20143;-79
2023/10/22 03:18:46;;;;;;;2.40;0.50;;;;;;;11.50;100.00;99820.56;5092714;28;20056;-80
2023/10/22 03:21:14;;;;;;;0.50;0.50;;;;;;;11.48;100.00;99823.72;5092536;28;20420;-80
2023/10/22 03:23:44;;;;;;;0.47;0.47;;;;;;;11.48;100.00;99834.38;5092902;28;20041;-79
2023/10/22 03:26:14;;;;;;;0.60;0.60;;;;;;;11.47;100.00;99848.91;5090598;28;20135;-81
2023/10/22 03:28:41;;;;;;;0.40;0.40;;;;;;;11.46;100.00;99866.09;5091673;28;20056;-80
2023/10/22 03:31:07;;;;;;;0.50;0.50;;;;;;;11.47;100.00;99864.88;5092534;28;20480;-81
2023/10/22 03:33:34;;;;;;;1.10;0.50;;;;;;;11.47;100.00;99872.88;5074542;28;20055;-81
2023/10/22 03:36:04;;;;;;;0.30;0.30;;;;;;;11.46;100.00;99884.00;5092432;28;20059;-81
2023/10/22 03:38:31;;;;;;;0.40;0.40;;;;;;;11.43;100.00;99885.66;5094243;28;20480;-81
2023/10/22 03:41:05;;;;;;;1.15;0.65;;;;;;;11.40;100.00;99902.59;5078200;28;20048;-81
2023/10/22 03:43:32;;;;;;;0.70;0.70;;;;;;;11.40;100.00;99896.53;5096052;28;20052;-81
2023/10/22 03:45:59;;;;;;;1.00;0.90;;;;;;;11.36;100.00;99916.09;5096499;28;20079;-81
2023/10/22 03:48:27;;;;;;;1.40;1.00;;;;;;;11.33;100.00;99918.97;5093902;28;20053;-80
2023/10/22 03:50:54;;;;;;;1.88;1.10;;;;;;;11.31;100.00;99924.00;5096223;28;20041;-80
2023/10/22 03:53:24;;;;;;;1.35;1.35;;;;;;;11.28;100.00;99943.59;5095498;28;20041;-81
2023/10/22 03:55:51;;;;;;;1.60;1.50;;;;;;;11.25;100.00;99950.56;5095059;28;20048;-80
2023/10/22 03:58:17;;;;;;;1.70;1.60;;;;;;;11.24;100.00;99964.34;5095694;28;20520;-80
2023/10/22 04:00:44;;;;;;;3.78;1.70;;;;;;;11.19;100.00;99978.34;5096229;28;20044;-80
2023/10/22 04:03:11;;;;;;;5.30;2.50;;;;;;;11.17;100.00;99983.41;5095529;28;20045;-80
2023/10/22 04:05:38;;;;;;;7.93;2.30;;;;;;;11.14;100.00;99997.63;5095686;28;20489;-80
2023/10/22 04:08:05;;;;;;;2.47;2.10;;;;;;;11.12;100.00;99994.69;5096203;28;20502;-81
2023/10/22 04:10:31;;;;;;;2.95;2.28;;;;;;;11.12;100.00;100008.75;5093774;28;20056;-80
2023/10/22 04:12:58;;;;;;;5.75;2.75;;;;;;;11.12;100.00;100003.44;5094349;28;20053;-80
2023/10/22 04:15:24;;;;;;;3.10;2.80;;;;;;;11.12;100.00;100019.41;5095425;28;20055;-80
2023/10/22 04:17:51;;;;;;;8.60;2.53;;;;;;;11.11;100.00;100019.88;5094379;28;20676;-80
2023/10/22 04:20:18;;;;;;;5.97;2.70;;;;;;;11.11;100.00;100027.88;5095505;28;20044;-80
2023/10/22 04:22:44;;;;;;;4.70;2.60;;;;;;;11.07;100.00;100035.28;5094249;28;20118;-81
2023/10/22 04:25:13;;;;;;;2.45;2.08;;;;;;;11.05;100.00;100037.69;5093313;28;20497;-80
2023/10/22 04:27:40;;;;;;;6.20;2.28;;;;;;;11.02;100.00;100037.41;5095296;28;20049;-80
2023/10/22 04:30:07;;;;;;;2.83;2.10;;;;;;;11.05;100.00;100049.06;5094857;28;20043;-81
2023/10/22 04:32:35;;;;;;;3.20;1.92;;;;;;;11.03;100.00;100052.19;5095054;28;20055;-80
2023/10/22 04:35:03;;;;;;;3.33;1.70;;;;;;;11.02;100.00;100064.03;5095466;28;20041;-80
2023/10/22 04:37:30;;;;;;;2.75;1.50;;;;;;;10.99;100.00;100067.63;5093442;28;20056;-80
2023/10/22 04:39:57;;;;;;;2.70;1.92;;;;;;;10.98;100.00;100076.06;5094941;28;20470;-80
2023/10/22 04:42:27;;;;;;;4.00;1.88;;;;;;;10.96;100.00;100075.78;5094746;28;20051;-80
2023/10/22 04:44:53;;;;;;;1.92;1.70;;;;;;;10.95;100.00;100084.97;5095132;28;20048;-80
2023/10/22 04:47:20;;;;;;;5.40;1.63;;;;;;;10.93;100.00;100090.00;5093482;28;20084;-80
2023/10/22 04:49:49;;;;;;;3.10;1.70;;;;;;;10.92;100.00;100107.19;5094284;28;20051;-80
2023/10/22 04:52:31;;;;;;;7.47;1.83;;;;;;;10.92;100.00;100107.19;5094873;28;20041;-80
2023/10/22 04:54:59;;;;;;;5.45;2.15;;;;;;;10.90;100.00;100115.63;5094457;28;20056;-80
2023/10/22 04:57:27;;;;;;;2.03;1.73;;;;;;;10.92;100.00;100123.16;5094201;28;20741;-80
2023/10/22 04:59:53;;;;;;;2.75;2.13;;;;;;;10.92;100.00;100126.56;5095397;28;20041;-80
2023/10/22 05:02:20;;;;;;;3.47;1.80;;;;;;;10.93;100.00;100124.63;5093172;28;20070;-80
2023/10/22 05:04:50;;;;;;;6.13;2.25;;;;;;;10.94;100.00;100134.09;5094966;28;20044;-80
2023/10/22 05:07:16;;;;;;;3.20;2.13;;;;;;;10.93;100.00;100128.03;5093146;28;20071;-80
2023/10/22 05:09:44;;;;;;;3.92;2.30;;;;;;;10.94;100.00;100140.16;5094019;28;20040;-79
2023/10/22 05:12:10;;;;;;;6.40;2.50;;;;;;;10.93;100.00;100137.94;5094619;28;20093;-80
2023/10/22 05:14:37;;;;;;;3.70;2.40;;;;;;;10.92;100.00;100147.84;5094711;28;20132;-80
2023/10/22 05:17:05;;;;;;;2.80;2.25;;;;;;;10.93;100.00;100154.66;5093596;28;20347;-80
2023/10/22 05:19:32;;;;;;;8.85;2.72;;;;;;;10.94;100.00;100166.03;5092884;28;20076;-80
2023/10/22 05:21:59;;;;;;;5.22;2.70;;;;;;;10.91;100.00;100159.69;5094390;28;20489;-80
2023/10/22 05:24:26;;;;;;;4.03;3.05;;;;;;;10.91;100.00;100162.38;5093856;28;20114;-79
2023/10/22 05:26:53;;;;;;;5.63;3.13;;;;;;;10.90;100.00;100168.88;5094910;28;20045;-80
2023/10/22 05:29:20;;;;;;;3.95;2.92;;;;;;;10.91;100.00;100170.34;5094014;28;20048;-80
2023/10/22 05:31:46;;;;;;;5.38;2.60;;;;;;;10.90;100.00;100179.53;5094589;28;20131;-80
2023/10/22 05:34:13;;;;;;;3.05;2.75;;;;;;;10.87;100.00;100177.78;5094293;28;20644;-79
2023/10/22 05:36:40;;;;;;;6.35;3.20;;;;;;;10.84;100.00;100178.69;5093738;28;20059;-81
2023/10/22 05:39:06;;;;;;;3.97;2.70;;;;;;;10.83;100.00;100187.84;5094081;28;20517;-80
2023/10/22 05:41:33;;;;;;;3.55;2.60;;;;;;;10.84;100.00;100199.97;5094120;28;20075;-80
2023/10/22 05:44:02;;;;;;;3.15;2.60;;;;;;;10.82;100.00;100210.34;5094448;28;20048;-80
2023/10/22 05:46:33;;;;;;;5.47;2.83;;;;;;;10.82;100.00;100217.59;5093889;28;20036;-77
2023/10/22 05:49:01;;;;;;;3.50;2.90;;;;;;;10.82;100.00;100221.00;5094636;28;20064;-77
2023/10/22 05:51:27;;;;;;;2.45;2.35;;;;;;;10.83;100.00;100224.41;5093136;28;20132;-78
2023/10/22 05:53:54;;;;;;;3.80;3.10;;;;;;;10.83;100.00;100238.44;5094490;28;20048;-78
2023/10/22 05:56:23;;;;;;;3.53;3.03;;;;;;;10.81;100.00;100234.75;5093364;28;20102;-78
2023/10/22 05:58:49;;;;;;;3.65;3.20;;;;;;;10.79;100.00;100237.91;5094059;28;20049;-77
2023/10/22 06:01:16;;;;;;;2.85;2.58;;;;;;;10.79;100.00;100237.91;5093259;28;20044;-78
2023/10/22 06:03:43;;;;;;;6.50;3.00;;;;;;;10.78;100.00;100236.44;5093917;28;20120;-78
2023/10/22 06:06:19;;;;;;;2.92;2.72;;;;;;;10.80;100.00;100251.94;5093332;28;20123;-77
2023/10/22 06:08:46;;;;;;;4.00;2.85;;;;;;;10.79;100.00;100245.16;5094106;28;20050;-78
2023/10/22 06:11:14;;;;;;;5.30;2.40;;;;;;;10.77;100.00;100258.19;5093625;28;20041;-78
2023/10/22 06:13:41;;;;;;;3.08;2.38;;;;;;;10.73;100.00;100258.34;5093651;28;20608;-76
2023/10/22 06:16:07;;;;;;;7.15;2.33;;;;;;;10.73;100.00;100268.25;5093742;28;20044;-78
2023/10/22 06:18:34;;;;;;;6.63;2.38;;;;;;;10.72;100.00;100272.09;5092027;28;20566;-77
2023/10/22 06:21:12;;;;;;;3.03;2.20;;;;;;;10.71;100.00;100278.63;5093523;28;20044;-78
2023/10/22 06:23:39;;;;;;;2.60;2.40;;;;;;;10.71;100.00;100287.34;5093533;28;20533;-78
2023/10/22 06:26:15;;;;;;;2.30;2.10;;;;;;;10.69;100.00;100297.69;5093720;28;20490;-78
2023/10/22 06:28:43;;;;;;;8.48;2.30;;;;;;;10.67;100.00;100300.81;5093437;28;20040;-80
2023/10/22 06:31:12;;;;;;;3.60;2.30;;;;;;;10.66;100.00;100303.91;5093399;28;20048;-79
2023/10/22 06:33:40;;;;;;;6.30;2.40;;;;;;;10.65;100.00;100315.75;5091496;28;20102;-78
2023/10/22 06:36:14;;;;;;;4.88;2.42;;;;;;;10.63;100.00;100315.47;5092755;28;20504;-77
2023/10/22 06:38:42;;;;;;;2.88;2.50;;;;;;;10.62;100.00;100317.38;5091766;28;20521;-78
2023/10/22 06:41:17;;;;;;;2.88;2.63;;;;;;;10.60;100.00;100319.03;5093295;28;20037;-77
2023/10/22 06:43:44;;;;;;;5.07;2.80;;;;;;;10.59;100.00;100326.28;5093280;28;20044;-77
2023/10/22 06:46:11;;;;;;;3.83;2.90;;;;;;;10.60;100.00;100322.41;5093004;28;20048;-78
2023/10/22 06:48:38;;;;;;;3.22;2.88;;;;;;;10.63;100.00;100334.09;5093338;28;20123;-78
2023/10/22 06:51:09;;;;;;;4.38;3.35;;;;;;;10.67;100.00;100345.31;5093054;28;20051;-78
2023/10/22 06:53:37;;;;;;;4.03;3.30;;;;;;;10.66;100.00;100344.59;5091654;28;20051;-78
2023/10/22 06:56:05;;;;;;;4.60;3.42;;;;;;;10.69;100.00;100354.34;5092497;28;20064;-77
2023/10/22 06:58:32;;;;;;;7.03;4.00;;;;;;;10.72;100.00;100360.69;5092282;28;20113;-78
2023/10/22 07:01:10;;;;;;;5.03;4.53;;;;;;;10.73;100.00;100359.50;5093318;28;20052;-78
2023/10/22 07:03:40;;;;;;;5.07;4.57;;;;;;;10.73;100.00;100362.16;5092180;28;20048;-78
2023/10/22 07:06:07;;;;;;;5.47;4.97;;;;;;;10.75;100.00;100375.03;5092984;28;20040;-78
2023/10/22 07:08:34;;;;;;;5.53;5.03;;;;;;;10.76;100.00;100379.19;5092808;28;20127;-79
2023/10/22 07:11:01;;;;;;;9.73;5.05;;;;;;;10.76;100.00;100381.84;5091696;28;20505;-78
2023/10/22 07:13:27;;;;;;;6.63;5.55;;;;;;;10.76;100.00;100385.25;5091274;28;20045;-79
2023/10/22 07:15:54;;;;;;;6.43;5.63;;;;;;;10.74;100.00;100387.59;5091643;28;20139;-81
2023/10/22 07:18:22;;;;;;;10.80;6.85;;;;;;;10.76;100.00;100392.50;5091861;28;20520;-78
2023/10/22 07:20:49;;;;;;;8.30;6.20;;;;;;;10.76;100.00;100395.16;5091860;28;20052;-80
2023/10/22 07:23:16;;;;;;;7.18;5.70;;;;;;;10.76;100.00;100411.13;5092598;28;20051;-77
2023/10/22 07:25:43;;;;;;;7.53;5.22;;;;;;;10.78;100.00;100398.84;5092753;28;20121;-82
2023/10/22 07:28:15;;;;;;;6.05;5.50;;;;;;;10.79;100.00;100420.88;5092021;28;20040;-80
2023/10/22 07:30:49;;;;;;;9.70;4.47;;;;;;;10.84;100.00;100418.31;5091133;28;20051;-80
2023/10/22 07:33:17;;;;;;;6.10;5.22;;;;;;;10.86;100.00;100420.53;5090330;28;20049;-80
2023/10/22 07:35:55;;;;;;;5.82;5.22;;;;;;;10.83;100.00;100429.41;5091177;28;20413;-79
2023/10/22 07:38:23;;;;;;;8.18;5.13;;;;;;;10.83;100.00;100432.09;5091794;28;20128;-79
2023/10/22 07:40:54;;;;;;;7.85;4.88;;;;;;;10.84;100.00;100433.56;5090985;28;20044;-79
2023/10/22 07:43:20;;;;;;;6.13;4.65;;;;;;;10.87;100.00;100433.41;5090341;28;20079;-78
2023/10/22 07:45:47;;;;;;;9.98;4.88;;;;;;;10.95;100.00;100441.81;5092399;28;20045;-79
2023/10/22 07:48:14;;;;;;;6.13;4.63;;;;;;;10.98;100.00;100439.00;5091953;28;20488;-78
2023/10/22 07:50:40;;;;;;;7.80;4.82;;;;;;;11.05;100.00;100451.28;5091344;28;20120;-79
2023/10/22 07:53:09;;;;;;;6.30;4.55;;;;;;;11.16;100.00;100451.53;5092171;28;20044;-80
2023/10/22 07:55:37;;;;;;;9.88;4.35;;;;;;;11.19;100.00;100453.31;5091902;28;20057;-80
2023/10/22 07:58:04;;;;;;;4.13;3.78;;;;;;;11.22;100.00;100452.38;5090935;28;20394;-80
2023/10/22 08:00:31;;;;;;;6.38;3.70;;;;;;;11.40;100.00;100458.84;5091745;28;20075;-79
2023/10/22 08:02:58;;;;;;;8.25;4.13;;;;;;;11.49;100.00;100464.88;5090741;28;20048;-77
2023/10/22 08:05:24;;;;;;;6.47;3.80;;;;;;;11.63;100.00;100469.50;5091722;28;20053;-78
2023/10/22 08:07:51;;;;;;;6.90;3.95;;;;;;;11.65;100.00;100466.41;5074184;28;20131;-78
2023/10/22 08:10:17;;;;;;;4.30;3.05;;;;;;;11.69;100.00;100462.38;5090496;28;20045;-78
2023/10/22 08:12:44;;;;;;;8.07;4.03;;;;;;;11.62;100.00;100472.63;5092286;28;20044;-79
2023/10/22 08:15:11;;;;;;;4.70;3.33;;;;;;;11.54;100.00;100474.19;5090248;28;20055;-78
2023/10/22 08:17:38;;;;;;;5.05;3.50;;;;;;;11.64;100.00;100480.91;5091550;28;20103;-79
2023/10/22 08:20:05;;;;;;;6.85;3.67;;;;;;;11.74;100.00;100485.03;5092135;28;20049;-78
2023/10/22 08:22:32;;;;;;;4.50;3.35;;;;;;;11.79;100.00;100481.03;5091875;28;20036;-78
2023/10/22 08:24:58;;;;;;;7.63;2.80;;;;;;;11.82;100.00;100482.78;5093484;28;20056;-79
2023/10/22 08:27:25;;;;;;;4.85;3.17;;;;;;;11.91;100.00;100488.06;5093672;28;20387;-79
2023/10/22 08:29:51;;;;;;;3.60;2.92;;;;;;;11.91;100.00;100488.06;5095563;28;20049;-78
2023/10/22 08:32:18;;;;;;;6.47;3.17;;;;;;;11.92;100.00;100495.63;5094881;28;20394;-79
2023/10/22 08:34:44;;;;;;;3.10;2.72;;;;;;;11.99;100.00;100492.63;5095369;28;20041;-78
2023/10/22 08:37:11;;;;;;;5.65;2.72;;;;;;;12.06;100.00;100498.78;5093769;28;20135;-78
2023/10/22 08:39:37;;;;;;;2.92;2.67;;;;;;;12.13;100.00;100498.44;5095036;28;20102;-78
2023/10/22 08:42:09;;;;;;;3.17;2.75;;;;;;;12.16;100.00;100506.28;5094087;28;20922;-78
2023/10/22 08:44:42;;;;;;;;;;;;;;;12.25;100.00;100518.81;5094110;28;20140;-78
2023/10/22 08:47:09;;;;;;;4.22;2.70;;;;;;;12.10;100.00;100526.78;5094905;28;19924;-79
2023/10/22 08:49:39;;;;;;;6.50;3.28;;;;;;;11.97;100.00;100523.59;5093026;28;20044;-78
2023/10/22 08:52:07;;;;;;;3.53;2.85;;;;;;;11.84;100.00;100521.16;5094243;28;20127;-79
2023/10/22 08:54:36;;;;;;;4.55;3.03;;;;;;;11.76;100.00;100527.22;5093951;28;20378;-77
2023/10/22 08:57:03;;;;;;;5.80;2.97;;;;;;;11.72;100.00;100526.66;5094897;28;20045;-77
2023/10/22 08:59:34;;;;;;;3.13;2.65;;;;;;;11.71;100.00;100536.59;5093326;28;20150;-80
2023/10/22 09:02:05;;;;;;;5.38;2.95;;;;;;;11.74;100.00;100545.63;5094493;28;20051;-77
2023/10/22 09:04:32;;;;;;;2.95;2.72;;;;;;;11.70;100.00;100551.84;5094048;28;20044;-78
2023/10/22 09:07:00;;;;;;;6.40;2.58;;;;;;;11.64;100.00;100550.97;5094416;28;20051;-78
2023/10/22 09:09:28;;;;;;;4.82;2.70;;;;;;;11.65;100.00;100552.44;5093139;28;20047;-78
2023/10/22 09:11:56;;;;;;;2.78;2.53;;;;;;;11.64;100.00;100560.91;5092903;28;20051;-78
2023/10/22 09:14:24;;;;;;;4.55;2.88;;;;;;;11.63;100.00;100554.84;5093044;28;20068;-79
2023/10/22 09:16:51;;;;;;;6.53;3.28;;;;;;;11.67;100.00;100560.75;5094408;28;20124;-79
2023/10/22 09:19:35;;;;;;;3.67;2.67;;;;;;;11.79;100.00;100556.44;5093288;28;20045;-78
2023/10/22 09:22:02;;;;;;;6.78;2.80;;;;;;;12.00;100.00;100557.34;5093861;28;20041;-79
2023/10/22 09:24:29;;;;;;;6.00;2.70;;;;;;;12.21;100.00;100566.28;5093595;28;20055;-80
2023/10/22 09:26:56;;;;;;;4.70;2.70;;;;;;;12.44;100.00;100568.19;5093888;28;20540;-78
2023/10/22 09:29:23;;;;;;;3.00;2.60;;;;;;;12.60;100.00;100575.06;5091321;28;20056;-79
2023/10/22 09:31:54;;;;;;;7.53;2.67;;;;;;;12.66;100.00;100576.66;5093872;28;20045;-79
2023/10/22 09:34:30;;;;;;;4.18;2.70;;;;;;;12.90;100.00;100584.59;5092995;28;20044;-78
2023/10/22 09:36:58;;;;;;;6.28;2.60;;;;;;;13.12;100.00;100586.22;5092341;28;20481;-78
2023/10/22 09:39:39;;;;;;;5.53;2.60;;;;;;;13.11;100.00;100585.47;5091958;28;20053;-76
2023/10/22 09:42:07;;;;;;;4.00;2.28;;;;;;;12.98;100.00;100591.06;5092280;28;20530;-77
2023/10/22 09:44:38;;;;;;;8.43;2.40;;;;;;;13.05;100.00;100598.00;5092881;28;20040;-76
2023/10/22 09:47:06;;;;;;;4.38;2.22;;;;;;;13.10;100.00;100601.97;5093645;28;20127;-76
2023/10/22 09:49:35;;;;;;;7.75;2.13;;;;;;;13.20;100.00;100595.34;5092979;28;20044;-76
2023/10/22 09:52:04;;;;;;;3.05;2.22;;;;;;;13.35;100.00;100599.50;5093265;28;20047;-76
2023/10/22 09:54:41;;;;;;;4.80;2.20;;;;;;;13.51;100.00;100600.25;5092699;28;20051;-77
2023/10/22 09:57:12;;;;;;;6.05;2.13;;;;;;;13.66;100.00;100606.28;5092885;28;20044;-79
2023/10/22 09:59:43;;;;;;;8.63;2.13;;;;;;;13.82;100.00;100600.47;5092723;28;20480;-79
2023/10/22 10:02:17;;;;;;;5.18;2.47;;;;;;;13.98;100.00;100610.69;5074824;28;20049;-80
2023/10/22 10:04:51;;;;;;;2.97;2.28;;;;;;;13.97;100.00;100611.88;5093574;28;20051;-81
2023/10/22 10:07:18;;;;;;;2.33;2.17;;;;;;;13.95;100.00;100608.94;5092671;28;20051;-79
2023/10/22 10:09:45;;;;;;;6.43;2.70;;;;;;;13.98;98.88;100609.94;5091561;28;20846;-79
2023/10/22 10:12:13;;;;;;;4.53;2.50;;;;;;;13.97;98.86;100605.78;5092680;28;20044;-79
2023/10/22 10:14:48;;;;;;;2.90;2.28;;;;;;;13.87;98.72;100617.81;5093140;28;20499;-81
2023/10/22 10:17:17;;;;;;;5.43;2.92;;;;;;;13.81;99.28;100620.41;5092806;28;20045;-79
2023/10/22 10:19:45;;;;;;;4.22;2.20;;;;;;;13.82;100.00;100621.13;5092758;28;20115;-80
2023/10/22 10:22:41;;;;;;;6.50;2.17;;;;;;;13.77;99.83;100627.88;5092294;28;20072;-79
2023/10/22 10:25:30;;;;;;;8.35;2.60;;;;;;;13.88;100.00;100630.72;5092806;28;20045;-79
2023/10/22 10:28:13;;;;;;;11.10;2.40;;;;;;;13.95;98.37;100640.31;5092528;28;20566;-79
2023/10/22 10:30:40;;;;;;;7.28;2.72;;;;;;;14.02;98.17;100626.53;5090791;28;20048;-75
2023/10/22 10:33:09;;;;;;;7.32;1.90;;;;;;;14.05;97.99;100644.31;5092585;28;20127;-88
2023/10/22 10:35:47;;;;;;;6.30;1.88;;;;;;;14.02;96.19;100635.28;5091872;28;20084;-76
2023/10/22 10:38:14;;;;;;;6.38;1.85;;;;;;;14.02;96.52;100640.66;5092838;28;20036;-78
2023/10/22 10:40:44;;;;;;;4.07;1.83;;;;;;;14.02;96.80;100647.94;5092367;28;20052;-79
2023/10/22 10:43:11;;;;;;;3.00;1.80;;;;;;;14.00;95.46;100656.44;5091811;28;20121;-78
2023/10/22 10:45:43;;;;;;;2.95;1.77;;;;;;;13.90;95.26;100654.34;5092343;28;20052;-77
2023/10/22 10:48:45;;;;;;;3.10;1.77;;;;;;;13.94;94.87;100654.91;5090998;28;20048;-79
2023/10/22 10:51:23;;;;;;;1.40;1.27;;;;;;;13.99;94.99;100654.25;5090595;28;20044;-76
2023/10/22 10:54:03;;;;;;;7.15;1.88;;;;;;;14.03;95.62;100650.16;5092510;28;20063;-77
2023/10/22 10:56:53;;;;;;;4.53;1.70;;;;;;;14.07;95.22;100651.91;5091397;28;20527;-77
2023/10/22 10:59:30;;;;;;;5.90;2.00;;;;;;;14.10;95.17;100662.41;5091742;28;20055;-77
2023/10/22 11:02:01;;;;;;;4.07;2.05;;;;;;;14.11;94.24;100657.78;5092146;28;20505;-77
2023/10/22 11:04:29;;;;;;;16.45;2.33;;;;;;;14.11;94.48;100669.25;5091965;28;20102;-77
2023/10/22 11:06:57;;;;;;;10.80;2.10;;;;;;;14.17;94.49;100654.00;5092379;28;20052;-78
2023/10/22 11:09:45;;;;;;;22.42;2.70;;;;;;;14.15;93.09;100661.75;5090430;28;20494;-78
2023/10/22 11:12:12;;;;;;;16.80;2.90;;;;;;;14.17;93.48;100659.34;5091137;28;20044;-77
2023/10/22 11:14:40;;;;;;;11.02;2.15;;;;;;;14.25;93.22;100662.38;5089147;28;20045;-77
2023/10/22 11:17:06;;;;;;;14.68;2.55;;;;;;;14.21;92.68;100665.25;5092111;28;20143;-78
2023/10/22 11:19:33;;;;;;;6.55;1.98;;;;;;;14.15;91.75;100672.47;5091470;28;20078;-77
2023/10/22 11:22:00;;;;;;;8.88;2.25;;;;;;;14.06;90.93;100677.91;5092376;28;20585;-79
2023/10/22 11:24:32;;;;;;;6.07;1.75;;;;;;;13.97;92.15;100675.38;5091026;28;20040;-78
2023/10/22 11:27:02;;;;;;;5.03;1.90;;;;;;;13.82;90.17;100686.09;5092283;28;20040;-79